createdAt,value
2017-09-19T05:42:34.057Z,2.55
2017-09-19T05:45:02.221Z,2.60
2017-09-19T05:47:31.121Z,3.20
2017-09-19T05:49:59.412Z,2.92
2017-09-19T05:52:27.554Z,2.53
2017-09-19T05:54:56.492Z,2.62
2017-09-19T05:57:24.624Z,2.72
2017-09-19T05:59:53.516Z,2.95
2017-09-19T06:02:22.436Z,3.25
2017-09-19T06:04:50.572Z,2.75
2017-09-19T06:07:19.613Z,2.70
2017-09-19T06:09:47.755Z,2.58
2017-09-19T06:12:16.669Z,2.70
2017-09-19T06:14:44.813Z,2.90
2017-09-19T06:17:13.849Z,3.70
2017-09-19T06:19:41.977Z,3.20
2017-09-19T06:22:10.921Z,3.72
2017-09-19T06:24:39.056Z,3.28
2017-09-19T06:27:07.189Z,3.08
2017-09-19T06:29:35.349Z,3.20
2017-09-19T06:32:03.617Z,3.12
2017-09-19T06:34:31.788Z,3.40
2017-09-19T06:36:59.925Z,3.20
2017-09-19T06:39:28.085Z,3.70
2017-09-19T06:41:56.228Z,4.10
2017-09-19T06:44:24.381Z,3.75
2017-09-19T06:46:52.524Z,3.78
2017-09-19T06:49:20.797Z,3.65
2017-09-19T06:51:48.925Z,3.70
2017-09-19T06:54:17.076Z,3.72
2017-09-19T06:56:45.200Z,3.40
2017-09-19T06:59:13.368Z,4.10
2017-09-19T07:01:42.287Z,3.80
2017-09-19T07:04:10.558Z,3.37
2017-09-19T07:06:38.712Z,3.85
2017-09-19T07:09:07.612Z,3.67
2017-09-19T07:11:35.735Z,3.22
2017-09-19T07:14:03.908Z,2.90
2017-09-19T07:16:32.037Z,2.92
2017-09-19T07:19:00.200Z,3.20
2017-09-19T07:21:28.341Z,3.40
2017-09-19T07:23:56.616Z,3.15
2017-09-19T07:26:24.756Z,3.40
2017-09-19T07:28:52.919Z,3.25
2017-09-19T07:31:21.064Z,3.37
2017-09-19T07:33:49.969Z,2.80
2017-09-19T07:36:18.238Z,2.90
2017-09-19T07:38:46.382Z,3.42
2017-09-19T07:41:14.555Z,2.87
2017-09-19T07:43:42.700Z,3.30
2017-09-19T07:46:10.833Z,3.10
2017-09-19T07:48:40.325Z,2.75
2017-09-19T07:51:08.461Z,3.22
2017-09-19T07:53:36.724Z,3.40
2017-09-19T07:56:04.852Z,3.08
2017-09-19T07:58:33.062Z,2.67
2017-09-19T08:01:01.187Z,3.17
2017-09-19T08:03:29.322Z,3.30
2017-09-19T08:05:57.485Z,3.60
2017-09-19T08:08:25.652Z,3.28
2017-09-19T08:10:53.813Z,3.20
2017-09-19T08:13:21.941Z,3.00
2017-09-19T08:15:50.201Z,3.70
2017-09-19T08:18:18.331Z,3.65
2017-09-19T08:20:46.498Z,4.18
2017-09-19T08:23:14.672Z,4.12
2017-09-19T08:25:42.800Z,3.78
2017-09-19T08:28:11.084Z,4.22
2017-09-19T08:30:39.225Z,4.22
2017-09-19T08:33:07.416Z,4.47
2017-09-19T08:35:35.569Z,3.75
2017-09-19T08:38:03.745Z,4.12
2017-09-19T08:40:31.877Z,4.22
2017-09-19T08:43:00.025Z,3.90
2017-09-19T08:45:29.521Z,3.80
2017-09-19T08:47:57.684Z,4.62
2017-09-19T08:50:25.828Z,3.62
2017-09-19T08:52:54.105Z,3.97
2017-09-19T08:55:22.236Z,3.75
2017-09-19T08:57:51.151Z,4.00
2017-09-19T09:00:19.308Z,3.72
2017-09-19T09:02:48.211Z,3.87
2017-09-19T09:05:16.349Z,3.90
2017-09-19T09:07:44.615Z,4.25
2017-09-19T09:10:12.753Z,4.10
2017-09-19T09:12:40.909Z,4.15
2017-09-19T09:15:09.041Z,4.18
2017-09-19T09:17:37.217Z,4.10
2017-09-19T09:20:05.380Z,3.90
2017-09-19T09:22:33.568Z,3.85
2017-09-19T09:25:01.712Z,4.50
2017-09-19T09:27:29.877Z,3.90
2017-09-19T09:29:58.025Z,3.70
2017-09-19T09:32:26.189Z,3.47
2017-09-19T09:34:54.320Z,3.47
2017-09-19T09:37:22.598Z,3.70
2017-09-19T09:39:50.740Z,3.40
2017-09-19T09:42:18.877Z,3.60
2017-09-19T09:44:49.064Z,3.22
2017-09-19T09:47:17.193Z,3.10
2017-09-19T09:49:45.348Z,3.10
2017-09-19T09:52:13.477Z,3.22
2017-09-19T09:54:41.745Z,3.15
2017-09-19T09:57:09.881Z,3.28
2017-09-19T09:59:38.024Z,3.00
2017-09-19T10:02:06.952Z,2.47
2017-09-19T10:04:35.080Z,2.10
2017-09-19T10:07:03.253Z,2.50
2017-09-19T10:09:31.392Z,3.00
2017-09-19T10:11:59.669Z,3.03
2017-09-19T10:14:27.800Z,2.10
2017-09-19T10:16:55.936Z,2.17
2017-09-19T10:19:24.104Z,2.55
2017-09-19T10:21:52.238Z,1.92
2017-09-19T10:24:20.396Z,2.25
2017-09-19T10:26:48.545Z,1.70
2017-09-19T10:29:16.676Z,1.80
2017-09-19T10:31:44.961Z,1.90
2017-09-19T10:34:13.087Z,2.05
2017-09-19T10:36:41.252Z,1.80
2017-09-19T10:39:10.159Z,1.90
2017-09-19T10:41:39.076Z,2.33
2017-09-19T10:44:07.224Z,2.42
2017-09-19T10:46:35.364Z,3.00
2017-09-19T10:49:03.652Z,2.83
2017-09-19T10:51:32.549Z,3.50
2017-09-19T10:54:01.490Z,4.10
2017-09-19T10:56:29.623Z,4.07
2017-09-19T10:58:57.755Z,4.20
2017-09-19T11:01:26.037Z,4.80
2017-09-19T11:03:54.188Z,7.57
2017-09-19T11:06:22.312Z,6.05
2017-09-19T11:08:51.216Z,6.85
2017-09-19T11:11:20.134Z,5.93
2017-09-19T11:13:48.262Z,4.90
2017-09-19T11:16:17.168Z,5.12
2017-09-19T11:18:45.433Z,4.40
2017-09-19T11:21:14.328Z,4.80
2017-09-19T11:23:42.493Z,5.50
2017-09-19T11:26:11.384Z,4.43
2017-09-19T11:28:40.319Z,5.20
2017-09-19T11:31:08.449Z,4.97
2017-09-19T11:33:37.363Z,6.40
2017-09-19T11:36:05.620Z,5.32
2017-09-19T11:38:33.765Z,5.07
2017-09-19T11:41:01.953Z,5.60
2017-09-19T11:43:30.861Z,6.35
2017-09-19T11:46:01.081Z,5.20
2017-09-19T11:48:29.209Z,5.87
2017-09-19T11:50:57.377Z,5.30
2017-09-19T11:53:25.513Z,5.97
2017-09-19T11:55:53.636Z,6.93
2017-09-19T11:58:21.941Z,6.37
2017-09-19T12:00:50.841Z,5.80
2017-09-19T12:03:18.997Z,5.20
2017-09-19T12:05:47.893Z,5.07
2017-09-19T12:08:16.838Z,4.20
2017-09-19T12:10:44.962Z,4.15
2017-09-19T12:13:13.874Z,4.65
2017-09-19T12:15:42.161Z,3.83
2017-09-19T12:18:10.301Z,4.18
2017-09-19T12:20:39.241Z,4.57
2017-09-19T12:23:07.357Z,4.28
2017-09-19T12:25:35.642Z,4.40
2017-09-19T12:28:04.539Z,4.32
2017-09-19T12:30:33.452Z,3.95
2017-09-19T12:33:01.710Z,4.10
2017-09-19T12:35:30.606Z,4.10
2017-09-19T12:37:58.777Z,4.70
2017-09-19T12:40:26.938Z,4.25
2017-09-19T12:42:55.828Z,5.30
2017-09-19T12:45:24.785Z,5.62
2017-09-19T12:47:52.918Z,5.15
2017-09-19T12:50:21.700Z,5.37
2017-09-19T12:52:49.840Z,4.37
2017-09-19T12:55:17.999Z,3.90
2017-09-19T12:57:46.166Z,4.65
2017-09-19T13:00:14.302Z,3.85
2017-09-19T13:02:42.599Z,3.78
2017-09-19T13:05:10.731Z,4.85
2017-09-19T13:07:39.640Z,4.90
2017-09-19T13:10:07.909Z,5.12
2017-09-19T13:12:36.045Z,5.25
2017-09-19T13:15:04.216Z,5.15
2017-09-19T13:17:32.349Z,5.30
2017-09-19T13:20:00.564Z,4.75
2017-09-19T13:22:28.709Z,4.65
2017-09-19T13:24:56.854Z,4.95
2017-09-19T13:27:25.010Z,4.53
2017-09-19T13:29:53.906Z,4.53
2017-09-19T13:32:22.068Z,5.20
2017-09-19T13:34:50.988Z,5.50
2017-09-19T13:37:19.274Z,5.85
2017-09-19T13:39:47.449Z,5.25
2017-09-19T13:42:15.600Z,5.55
2017-09-19T13:44:43.769Z,5.15
2017-09-19T13:47:11.920Z,5.32
2017-09-19T13:49:40.094Z,4.68
2017-09-19T13:52:08.993Z,5.90
2017-09-19T13:54:38.047Z,5.95
2017-09-19T13:57:06.181Z,5.53
2017-09-19T13:59:34.315Z,5.87
2017-09-19T14:02:02.485Z,5.15
2017-09-19T14:04:30.618Z,5.90
2017-09-19T14:06:58.780Z,5.60
2017-09-19T14:09:26.933Z,6.15
2017-09-19T14:11:55.231Z,7.25
2017-09-19T14:14:23.391Z,5.85
2017-09-19T14:16:51.520Z,5.62
2017-09-19T14:19:19.685Z,6.90
2017-09-19T14:21:47.837Z,6.47
2017-09-19T14:24:15.996Z,6.10
2017-09-19T14:26:44.143Z,5.90
2017-09-19T14:29:13.192Z,4.93
2017-09-19T14:31:41.337Z,5.15
2017-09-19T14:34:09.471Z,5.10
2017-09-19T14:36:37.752Z,4.97
2017-09-19T14:39:05.894Z,4.90
2017-09-19T14:41:34.161Z,3.70
2017-09-19T14:44:02.397Z,3.40
2017-09-19T14:46:31.340Z,3.50
2017-09-19T14:48:59.654Z,3.53
2017-09-19T14:51:28.650Z,3.50
2017-09-19T14:53:56.866Z,3.45
2017-09-19T14:56:25.059Z,4.20
2017-09-19T14:58:53.325Z,3.90
2017-09-19T15:01:21.453Z,3.55
2017-09-19T15:03:49.756Z,4.10
2017-09-19T15:06:17.913Z,4.15
2017-09-19T15:08:46.033Z,4.00
2017-09-19T15:11:14.197Z,4.00
2017-09-19T15:13:42.378Z,4.80
2017-09-19T15:16:10.597Z,4.70
2017-09-19T15:18:38.854Z,4.87
2017-09-19T15:21:07.136Z,4.70
2017-09-19T15:23:36.037Z,4.30
2017-09-19T15:26:04.190Z,4.95
2017-09-19T15:28:32.358Z,4.70
2017-09-19T15:31:00.505Z,4.57
2017-09-19T15:33:28.676Z,4.90
2017-09-19T15:35:56.826Z,5.18
2017-09-19T15:38:25.116Z,5.07
2017-09-19T15:40:53.265Z,5.72
2017-09-19T15:43:21.427Z,4.80
2017-09-19T15:45:50.405Z,3.42
2017-09-19T15:48:19.308Z,3.20
2017-09-19T15:50:47.465Z,3.28
2017-09-19T15:53:15.601Z,3.05
2017-09-19T15:55:43.877Z,2.70
2017-09-19T15:58:12.043Z,2.65
2017-09-19T16:00:40.193Z,2.67
2017-09-19T16:03:08.376Z,2.83
2017-09-19T16:05:36.517Z,2.80
2017-09-19T16:08:05.465Z,2.75
2017-09-19T16:10:33.614Z,2.90
2017-09-19T16:13:01.757Z,2.50
2017-09-19T16:15:30.812Z,2.55
2017-09-19T16:17:58.966Z,2.53
2017-09-19T16:20:27.104Z,2.45
2017-09-19T16:22:56.143Z,2.87
2017-09-19T16:25:25.058Z,2.50
2017-09-19T16:27:53.229Z,2.75
2017-09-19T16:30:21.383Z,3.40
2017-09-19T16:32:49.517Z,2.45
2017-09-19T16:35:17.797Z,3.10
2017-09-19T16:37:45.943Z,2.72
2017-09-19T16:40:14.118Z,2.80
2017-09-19T16:42:43.034Z,2.40
2017-09-19T16:45:12.438Z,2.58
2017-09-19T16:47:40.570Z,3.00
2017-09-19T16:50:08.716Z,2.95
2017-09-19T16:52:37.011Z,2.78
2017-09-19T16:55:05.188Z,3.20
2017-09-19T16:57:33.333Z,2.90
2017-09-19T17:00:01.470Z,2.50
2017-09-19T17:02:29.696Z,3.42
2017-09-19T17:04:57.817Z,2.85
2017-09-19T17:07:25.958Z,2.30
2017-09-19T17:09:54.248Z,2.53
2017-09-19T17:12:22.408Z,2.42
2017-09-19T17:14:50.570Z,2.60
2017-09-19T17:17:18.704Z,2.70
2017-09-19T17:19:46.889Z,2.40
2017-09-19T17:22:15.043Z,2.70
2017-09-19T17:24:43.189Z,2.62
2017-09-19T17:27:12.251Z,2.40
2017-09-19T17:29:40.376Z,2.75
2017-09-19T17:32:08.549Z,3.00
2017-09-19T17:34:36.708Z,3.00
2017-09-19T17:37:05.607Z,2.75
2017-09-19T17:39:33.906Z,3.35
2017-09-19T17:42:02.091Z,3.00
2017-09-19T17:44:30.262Z,3.50
2017-09-19T17:46:59.177Z,3.10
2017-09-19T17:49:27.372Z,4.00
2017-09-19T17:51:55.507Z,3.55
2017-09-19T17:54:23.657Z,4.37
2017-09-19T17:56:52.682Z,3.42
2017-09-19T17:59:20.802Z,4.22
2017-09-19T18:01:49.010Z,3.72
2017-09-19T18:04:17.905Z,3.40
2017-09-19T18:06:47.297Z,3.72
2017-09-19T18:09:15.427Z,3.85
2017-09-19T18:11:43.574Z,3.65
2017-09-19T18:14:11.817Z,3.50
2017-09-19T18:16:40.702Z,3.42
2017-09-19T18:19:08.901Z,4.15
2017-09-19T18:21:37.070Z,4.45
2017-09-19T18:24:05.243Z,4.05
2017-09-19T18:26:33.398Z,3.72
2017-09-19T18:29:01.555Z,4.00
2017-09-19T18:31:30.493Z,3.85
2017-09-19T18:33:58.645Z,4.45
2017-09-19T18:36:26.860Z,3.67
2017-09-19T18:38:55.021Z,4.45
2017-09-19T18:41:23.179Z,3.90
2017-09-19T18:43:52.617Z,3.80
2017-09-19T18:46:20.749Z,4.50
2017-09-19T18:48:48.945Z,4.45
2017-09-19T18:51:17.093Z,4.35
2017-09-19T18:53:45.296Z,4.25
2017-09-19T18:56:13.452Z,5.00
2017-09-19T18:58:41.617Z,4.95
2017-09-19T19:01:09.771Z,4.15
2017-09-19T19:03:37.913Z,4.55
2017-09-19T19:06:06.126Z,3.85
2017-09-19T19:08:34.271Z,5.05
2017-09-19T19:11:03.363Z,4.68
2017-09-19T19:13:31.503Z,4.65
2017-09-19T19:15:59.646Z,4.87
2017-09-19T19:18:27.826Z,4.40
2017-09-19T19:20:56.761Z,4.70
2017-09-19T19:23:25.062Z,5.45
2017-09-19T19:25:54.000Z,4.72
2017-09-19T19:28:22.177Z,5.32
2017-09-19T19:30:50.371Z,4.80
2017-09-19T19:33:18.517Z,4.65
2017-09-19T19:35:46.702Z,4.60
2017-09-19T19:38:14.854Z,4.50
2017-09-19T19:40:43.130Z,4.70
2017-09-19T19:43:11.297Z,4.60
2017-09-19T19:45:39.502Z,4.43
2017-09-19T19:48:07.636Z,5.05
2017-09-19T19:50:35.765Z,5.10
2017-09-19T19:53:03.965Z,4.22
2017-09-19T19:55:32.885Z,4.78
2017-09-19T19:58:01.085Z,4.45
2017-09-19T20:00:29.235Z,4.40
2017-09-19T20:02:57.406Z,4.65
2017-09-19T20:05:26.342Z,4.68
2017-09-19T20:07:54.477Z,4.70
2017-09-19T20:10:22.662Z,4.65
2017-09-19T20:12:50.794Z,5.30
2017-09-19T20:15:19.066Z,4.87
2017-09-19T20:17:47.973Z,4.35
2017-09-19T20:20:16.262Z,4.07
2017-09-19T20:22:44.397Z,4.43
2017-09-19T20:25:13.315Z,4.28
2017-09-19T20:27:41.481Z,4.10
2017-09-19T20:30:09.618Z,4.00
2017-09-19T20:32:37.789Z,3.72
2017-09-19T20:35:06.080Z,4.25
2017-09-19T20:37:34.221Z,4.30
2017-09-19T20:40:02.373Z,4.03
2017-09-19T20:42:30.525Z,3.45
2017-09-19T20:44:58.693Z,3.30
2017-09-19T20:47:26.834Z,4.57
2017-09-19T20:49:55.125Z,3.37
2017-09-19T20:52:23.296Z,3.10
2017-09-19T20:54:51.449Z,3.08
2017-09-19T20:57:19.616Z,4.05
2017-09-19T20:59:47.827Z,3.10
2017-09-19T21:02:15.977Z,3.20
2017-09-19T21:04:44.143Z,2.85
2017-09-19T21:07:12.430Z,2.92
2017-09-19T21:09:40.605Z,3.03
2017-09-19T21:12:08.733Z,2.90
2017-09-19T21:14:36.878Z,2.45
2017-09-19T21:17:05.812Z,3.17
2017-09-19T21:19:33.954Z,2.65
2017-09-19T21:22:02.131Z,3.03
2017-09-19T21:24:30.294Z,2.60
2017-09-19T21:26:59.341Z,2.67
2017-09-19T21:29:27.520Z,2.95
2017-09-19T21:31:55.678Z,2.20
2017-09-19T21:34:23.846Z,2.95
2017-09-19T21:36:51.977Z,1.95
2017-09-19T21:39:20.249Z,1.83
2017-09-19T21:41:48.386Z,2.20
2017-09-19T21:44:16.597Z,2.42
2017-09-19T21:46:44.751Z,2.45
2017-09-19T21:49:12.889Z,2.55
2017-09-19T21:51:41.061Z,2.60
2017-09-19T21:54:09.198Z,2.10
2017-09-19T21:56:37.377Z,2.65
2017-09-19T21:59:05.529Z,2.45
2017-09-19T22:01:34.583Z,2.45
2017-09-19T22:04:02.740Z,2.33
2017-09-19T22:06:30.883Z,2.80
2017-09-19T22:08:59.829Z,2.53
2017-09-19T22:11:27.997Z,2.42
2017-09-19T22:13:56.285Z,2.10
2017-09-19T22:16:24.426Z,2.50
2017-09-19T22:18:52.609Z,2.45
2017-09-19T22:21:20.771Z,2.30
2017-09-19T22:23:48.941Z,2.20
2017-09-19T22:26:17.090Z,2.60
2017-09-19T22:28:45.998Z,2.47
2017-09-19T22:31:14.153Z,2.40
2017-09-19T22:33:42.298Z,2.53
2017-09-19T22:36:10.441Z,2.50
2017-09-19T22:38:38.730Z,2.60
2017-09-19T22:41:06.913Z,2.30
2017-09-19T22:43:35.093Z,2.40
2017-09-19T22:46:03.250Z,2.70
2017-09-19T22:48:31.406Z,2.80
2017-09-19T22:50:59.546Z,2.80
2017-09-19T22:53:27.837Z,2.83
2017-09-19T22:55:57.205Z,2.45
2017-09-19T22:58:26.118Z,2.78
2017-09-19T23:00:55.046Z,2.50
2017-09-19T23:03:23.182Z,2.90
2017-09-19T23:05:51.465Z,2.90
2017-09-19T23:08:19.605Z,2.87
2017-09-19T23:10:47.902Z,3.58
2017-09-19T23:13:16.797Z,3.85
2017-09-19T23:15:44.952Z,3.12
2017-09-19T23:18:13.849Z,3.03
2017-09-19T23:20:42.802Z,2.90
2017-09-19T23:23:10.948Z,3.30
2017-09-19T23:25:39.089Z,2.62
2017-09-19T23:28:07.361Z,3.00
2017-09-19T23:30:36.282Z,3.70
2017-09-19T23:33:04.448Z,3.15
2017-09-19T23:35:32.586Z,3.17
2017-09-19T23:38:00.757Z,3.10
2017-09-19T23:40:28.905Z,2.83
2017-09-19T23:42:57.202Z,3.05
2017-09-19T23:45:25.358Z,3.10
2017-09-19T23:47:53.501Z,2.90
2017-09-19T23:50:21.656Z,3.10
2017-09-19T23:52:49.789Z,3.33
2017-09-19T23:55:17.943Z,2.75
2017-09-19T23:57:46.084Z,2.58
